Terminal Aerodrome Forecast
Issued by NWS Sioux Falls, SD

Home | Current Version | Previous Version | Text Only | Print | Product List | Glossary Off
Versions: 1 2 3 4 5 6 7 8 9 10 11 12 13 14 15 16 17 18 19 20

508
FTUS43 KFSD 202320
TAFFSD
TAF
KFSD 202320Z 2100/2124 VRB03KT P6SM SKC
     FM211400 14010KT P6SM SCT150
     FM211800 15014G23KT P6SM SCT030 BKN040=

USA.gov is the U.S. government's official web portal to all federal, state and local government web resources and services.